Licking, MO (65542)

10:23 AM CDT on September 02, 2015 (GMT -0500)
Evening Shade, NW Texas Cnty, MO | | Change Station
CLOSE
Current Station
Personal Weather Station
Location: Plato, MO
Elevation: 1375 ft
Nearby Weather Stations

Elev 1375 ft 37.56 °N, 92.14 °W | Updated 15 seconds ago

Clear
Clear
81.1 °F
Feels Like 85 °F
N
2.5
Wind Variable Wind from SSE
Gusts 4.9 mph

Today
High -- | Low -- °F
--% Chance of Precip.
Yesterday
High -- | Low -- °F
Precip. -- in
6:38 AM 7:35 PM
Waning Gibbous, 79% visible
Pressure 30.10 in
Visibility 10.0 miles
Clouds Clear
Heat Index 85 °F
Dew Point 71 °F
Humidity 72%
Rainfall 0.00 in
Snow Depth Not available.
UV 3.0 out of 12
Pollen 10.90 out of 12
Air Quality Not available.
Flu Activity Not available.
METAR KTBN 021458Z AUTO VRB04KT 10SM CLR 27/21 A3012 RMK AO2 SLP192 T02670209 52005
Pressure 30.10 in
Visibility 10.0 miles
Clouds Clear
Heat Index 85 °F
Dew Point 71 °F
Humidity 72%
Rainfall 0.00 in
Snow Depth Not available.
UV 3.0 out of 12
Pollen 10.90 out of 12
Air Quality Not available.
Flu Activity Not available.
METAR KTBN 021458Z AUTO VRB04KT 10SM CLR 27/21 A3012 RMK AO2 SLP192 T02670209 52005

10-Day Weather Forecast

×

Almanac

Astronomy

Sep. 02, 2015 Rise Set
Actual Time
Civil Twilight
Nautical Twilight
Astronomical Twilight
Moon
Length of Visible Light
Length of Day
Tomorrow will be .
, % of the Moon is Illuminated

Today's Extremes

State Highs State Lows

Community

WunderPhotos

Upload Photos

1,851,770 photos uploaded!

WunderBlogs® & News

Nearby

Air Quality

  Air Quality AQ Index Pollutant
Not available.

Snow Depth

Station Depth Elevation

Earthquake Activity

City Distance Mag. Time & Date
Minimum magnitude displayed is 2.5.

Coastal Water Temperatures

Place Temperature

Stations

Nearby Weather Stations

Station Location Temp. Windchill Dew Point Humidity Wind Precip. Elev Updated Type